Time;durP1;ratioP1;P1;durP2;ratioP2;P2;SDS_P1;SDS_P2;PMS_P1;PMS_P2;Temp;Humidity;BMP_temperature;BMP_pressure;BME280_temperature;BME280_humidity;BME280_pressure;Samples;Min_cycle;Max_cycle;Signal;HPM_P1;HPM_P2
2020/12/24 00:01:04;;;;;;;2.83;1.60;;;;;;;;;;5018133;28;20025;-86
2020/12/24 00:03:29;;;;;;;1.95;1.75;;;10.10;99.90;;;;;;5034599;28;20044;-87
2020/12/24 00:05:55;;;;;;;1.30;1.30;;;10.20;90.60;;;;;;5017689;28;20116;-87
2020/12/24 00:08:21;;;;;;;3.38;1.58;;;;;;;;;;5018072;28;20067;-86
2020/12/24 00:10:48;;;;;;;1.13;1.02;;;10.00;99.90;;;;;;5034479;28;20365;-87
2020/12/24 00:13:14;;;;;;;1.40;1.20;;;10.20;90.90;;;;;;5017952;28;20368;-87
2020/12/24 00:15:40;;;;;;;1.42;1.20;;;;;;;;;;5017543;28;20029;-85
2020/12/24 00:18:06;;;;;;;1.40;1.25;;;;;;;;;;5034592;28;20018;-86
2020/12/24 00:20:32;;;;;;;1.92;1.65;;;9.90;88.30;;;;;;5034422;28;20116;-86
2020/12/24 00:22:57;;;;;;;3.55;1.70;;;9.60;99.90;;;;;;5018124;28;20056;-87
2020/12/24 00:25:23;;;;;;;3.80;1.20;;;9.40;99.90;;;;;;5017983;28;20068;-85
2020/12/24 00:27:48;;;;;;;1.65;1.20;;;9.70;88.40;;;;;;5017437;28;20026;-86
2020/12/24 00:30:14;;;;;;;1.55;1.25;;;;;;;;;;5017837;28;20025;-84
2020/12/24 00:32:40;;;;;;;1.40;1.20;;;;;;;;;;5033995;28;20025;-88
2020/12/24 00:35:06;;;;;;;1.52;1.30;;;9.40;95.40;;;;;;5033858;28;20033;-86
2020/12/24 00:37:32;;;;;;;1.27;1.17;;;;;;;;;;5017536;28;20096;-86
2020/12/24 00:39:58;;;;;;;3.90;1.20;;;;;;;;;;5034150;28;20021;-85
2020/12/24 00:42:24;;;;;;;1.83;1.40;;;8.70;95.50;;;;;;5033743;28;20052;-85
2020/12/24 00:44:50;;;;;;;2.08;1.25;;;;;;;;;;5017092;28;20136;-85
2020/12/24 00:47:16;;;;;;;2.13;1.27;;;;;;;;;;5033684;28;20029;-86
2020/12/24 00:49:42;;;;;;;1.55;1.17;;;;;;;;;;5033768;28;20039;-85
2020/12/24 00:52:08;;;;;;;0.95;0.95;;;;;;;;;;5033783;28;20099;-85
2020/12/24 00:54:34;;;;;;;1.55;1.15;;;;;;;;;;5033238;28;20029;-84
2020/12/24 00:57:00;;;;;;;1.60;1.27;;;;;;;;;;5034381;28;20049;-85
2020/12/24 00:59:26;;;;;;;1.30;1.20;;;;;;;;;;5033841;28;20101;-88
2020/12/24 01:01:51;;;;;;;2.72;1.05;;;8.60;95.30;;;;;;5033800;28;20029;-86
2020/12/24 01:04:17;;;;;;;1.17;0.90;;;8.40;97.00;;;;;;5016818;28;20494;-86
2020/12/24 01:06:43;;;;;;;2.00;1.45;;;;;;;;;;5017085;28;20751;-86
2020/12/24 01:09:09;;;;;;;1.30;1.20;;;;;;;;;;5033230;28;20029;-86
2020/12/24 01:11:35;;;;;;;1.92;1.40;;;;;;;;;;5033089;28;20025;-86
2020/12/24 01:14:01;;;;;;;1.70;1.20;;;;;;;;;;5033189;28;20029;-86
2020/12/24 01:16:27;;;;;;;1.98;1.08;;;;;;;;;;5033419;28;20091;-85
2020/12/24 01:18:52;;;;;;;1.50;1.30;;;8.40;98.10;;;;;;5033414;28;20028;-87
2020/12/24 01:21:18;;;;;;;1.02;0.98;;;;;;;;;;5016715;28;20045;-88
2020/12/24 01:23:44;;;;;;;1.85;1.40;;;;;;;;;;5033309;28;20078;-85
2020/12/24 01:26:10;;;;;;;1.27;1.20;;;8.40;98.40;;;;;;5033109;28;20390;-86
2020/12/24 01:28:36;;;;;;;0.90;0.90;;;;;;;;;;5016701;28;20025;-86
2020/12/24 01:31:04;;;;;;;1.92;1.25;;;8.30;95.80;;;;;;5033059;28;20026;-87
2020/12/24 01:33:29;;;;;;;2.00;1.80;;;8.50;98.80;;;;;;5016558;28;20039;-86
2020/12/24 01:35:58;;;;;;;1.75;1.40;;;;;;;;;;5016345;28;20029;-85
2020/12/24 01:38:23;;;;;;;1.92;1.42;;;;;;;;;;5033291;28;20414;-86
2020/12/24 01:40:55;;;;;;;2.25;1.30;;;8.30;98.50;;;;;;5032773;28;20112;-85
2020/12/24 01:43:21;;;;;;;1.30;1.05;;;;;;;;;;5016505;28;20033;-86
2020/12/24 01:45:52;;;;;;;1.27;0.90;;;8.20;96.70;;;;;;5032647;28;20025;-86
2020/12/24 01:48:17;;;;;;;1.70;1.60;;;8.10;98.40;;;;;;5016653;28;20036;-86
2020/12/24 01:50:43;;;;;;;5.28;1.63;;;;;;;;;;5016171;28;20026;-86
2020/12/24 01:53:09;;;;;;;1.48;1.30;;;8.40;98.50;;;;;;5032520;28;20079;-86
2020/12/24 01:55:35;;;;;;;1.95;1.00;;;;;;;;;;5015617;28;20057;-86
2020/12/24 01:58:00;;;;;;;2.13;1.70;;;8.00;98.20;;;;;;5032600;28;20110;-86
2020/12/24 02:00:26;;;;;;;1.13;1.08;;;;;;;;;;5016175;28;20491;-89
2020/12/24 02:02:52;;;;;;;1.60;1.33;;;;;;;;;;5032470;28;20135;-86
2020/12/24 02:05:18;;;;;;;2.58;1.20;;;8.00;97.60;;;;;;5032325;28;20490;-85
2020/12/24 02:07:44;;;;;;;1.60;1.08;;;8.10;89.80;;;;;;5015785;28;20025;-86
2020/12/24 02:10:10;;;;;;;1.50;1.35;;;;;;;;;;5015743;28;20030;-87
2020/12/24 02:12:36;;;;;;;1.23;1.13;;;;;;;;;;5031776;28;20029;-85
2020/12/24 02:15:03;;;;;;;1.35;1.25;;;;;;;;;;5032167;28;20033;-87
2020/12/24 02:17:29;;;;;;;1.52;1.25;;;;;;;;;;5032123;28;20383;-86
2020/12/24 02:19:55;;;;;;;3.97;1.63;;;;;;;;;;5032489;28;20442;-86
2020/12/24 02:22:21;;;;;;;2.92;1.25;;;;;;;;;;5031929;28;20116;-85
2020/12/24 02:24:47;;;;;;;2.33;1.58;;;;;;;;;;5031192;28;20041;-86
2020/12/24 02:27:13;;;;;;;2.45;1.60;;;;;;;;;;5032216;28;20391;-84
2020/12/24 02:29:39;;;;;;;4.60;1.73;;;;;;;;;;5032210;28;20025;-85
2020/12/24 02:32:05;;;;;;;5.30;1.70;;;;;;;;;;5031944;28;20029;-85
2020/12/24 02:34:31;;;;;;;5.75;1.73;;;;;;;;;;5032186;28;20072;-86
2020/12/24 02:36:57;;;;;;;4.60;1.70;;;;;;;;;;5031823;28;20476;-86
2020/12/24 02:39:23;;;;;;;3.20;1.50;;;8.20;81.90;;;;;;5031475;28;20116;-86
2020/12/24 02:41:49;;;;;;;5.07;1.75;;;;;;;;;;5015677;28;20025;-86
2020/12/24 02:44:15;;;;;;;6.05;1.90;;;;;;;;;;5031741;28;20546;-86
2020/12/24 02:46:41;;;;;;;2.40;1.55;;;;;;;;;;5031786;28;20033;-89
2020/12/24 02:49:07;;;;;;;6.30;2.25;;;;;;;;;;5032129;28;20376;-86
2020/12/24 02:51:33;;;;;;;6.05;2.42;;;;;;;;;;5031945;28;20018;-84
2020/12/24 02:53:59;;;;;;;6.32;1.88;;;;;;;;;;5031696;28;20075;-85
2020/12/24 02:56:25;;;;;;;5.88;2.20;;;;;;;;;;5031301;28;20053;-88
2020/12/24 02:58:51;;;;;;;6.97;2.00;;;;;;;;;;5031370;28;20119;-85
2020/12/24 03:01:17;;;;;;;9.90;2.40;;;;;;;;;;5031763;28;20065;-87
2020/12/24 03:03:42;;;;;;;5.63;2.58;;;8.40;81.60;;;;;;5031433;28;20546;-89
2020/12/24 03:06:08;;;;;;;5.68;1.95;;;;;;;;;;5015418;28;20037;-86
2020/12/24 03:08:34;;;;;;;4.65;2.53;;;8.30;99.90;;;;;;5031274;28;20033;-86
2020/12/24 03:10:59;;;;;;;6.07;2.20;;;8.30;83.90;;;;;;5015309;28;20026;-89
2020/12/24 03:13:25;;;;;;;5.28;2.10;;;;;;;;;;5015303;28;20033;-88
2020/12/24 03:15:51;;;;;;;8.32;2.22;;;;;;;;;;5031374;28;20017;-86
2020/12/24 03:18:17;;;;;;;3.72;1.77;;;8.40;79.70;;;;;;5031667;28;20383;-86
2020/12/24 03:20:43;;;;;;;4.00;2.15;;;;;;;;;;5014963;28;20029;-85
2020/12/24 03:23:09;;;;;;;4.18;1.83;;;8.80;94.00;;;;;;5031346;28;20037;-86
2020/12/24 03:25:34;;;;;;;4.15;1.63;;;8.40;94.40;;;;;;5017447;28;20028;-87
2020/12/24 03:28:00;;;;;;;4.15;1.83;;;;;;;;;;5019073;28;20108;-85
2020/12/24 03:30:26;;;;;;;4.00;2.00;;;;;;;;;;5035077;28;20025;-87
2020/12/24 03:32:52;;;;;;;2.53;1.70;;;;;;;;;;5035288;28;20022;-88
2020/12/24 03:35:18;;;;;;;3.60;2.22;;;;;;;;;;5035376;28;20079;-85
2020/12/24 03:37:44;;;;;;;6.20;2.10;;;;;;;;;;5035108;28;20365;-89
2020/12/24 03:40:10;;;;;;;5.88;1.85;;;;;;;;;;5035175;28;20079;-87
2020/12/24 03:42:36;;;;;;;5.32;1.77;;;;;;;;;;5034900;28;20026;-85
2020/12/24 03:45:02;;;;;;;8.18;2.15;;;8.70;77.30;;;;;;5034798;28;20056;-86
2020/12/24 03:47:28;;;;;;;8.82;2.03;;;;;;;;;;5018134;28;20068;-85
2020/12/24 03:49:54;;;;;;;5.40;2.00;;;8.90;93.20;;;;;;5034687;28;20056;-85
2020/12/24 03:52:20;;;;;;;8.77;2.63;;;;;;;;;;5018627;28;20071;-85
2020/12/24 03:54:46;;;;;;;8.05;2.97;;;;;;;;;;5034971;28;20145;-85
2020/12/24 03:57:12;;;;;;;6.05;2.30;;;;;;;;;;5034462;28;20050;-85
2020/12/24 03:59:38;;;;;;;6.90;2.10;;;8.90;99.40;;;;;;5034729;28;20017;-86
2020/12/24 04:02:03;;;;;;;11.25;2.83;;;8.80;80.60;;;;;;5018692;28;20030;-86
2020/12/24 04:04:29;;;;;;;7.78;1.85;;;;;;;;;;5017881;28;20036;-86
2020/12/24 04:06:55;;;;;;;2.20;1.73;;;;;;;;;;5034792;28;20025;-87
2020/12/24 04:09:21;;;;;;;6.07;2.00;;;8.80;77.60;;;;;;5034370;28;20067;-86
2020/12/24 04:11:46;;;;;;;5.43;2.13;;;8.70;79.40;;;;;;5018119;28;20025;-86
2020/12/24 04:14:12;;;;;;;5.28;2.05;;;9.20;92.40;;;;;;5017879;28;20025;-85
2020/12/24 04:16:37;;;;;;;5.28;1.90;;;8.70;79.90;;;;;;5018048;28;20021;-85
2020/12/24 04:19:03;;;;;;;5.32;2.10;;;8.90;92.60;;;;;;5017541;28;20029;-86
2020/12/24 04:21:29;;;;;;;5.18;1.90;;;;;;;;;;5018015;28;20025;-85
2020/12/24 04:23:55;;;;;;;3.85;1.85;;;8.80;98.20;;;;;;5034694;28;20119;-86
2020/12/24 04:26:21;;;;;;;4.65;2.08;;;8.90;92.30;;;;;;5018109;28;20032;-86
2020/12/24 04:28:47;;;;;;;9.35;2.35;;;;;;;;;;5017716;28;20108;-88
2020/12/24 04:31:13;;;;;;;4.00;1.90;;;;;;;;;;5034303;28;20025;-85
2020/12/24 04:33:39;;;;;;;6.57;2.20;;;8.80;75.00;;;;;;5034337;28;20064;-88
2020/12/24 04:36:05;;;;;;;3.47;1.67;;;;;;;;;;5017032;28;20383;-86
2020/12/24 04:38:31;;;;;;;5.75;1.88;;;;;;;;;;5034179;28;20116;-85
2020/12/24 04:40:58;;;;;;;4.32;1.90;;;;;;;;;;5034061;28;20026;-86
2020/12/24 04:43:27;;;;;;;6.22;2.50;;;8.70;86.90;;;;;;5034018;28;20037;-85
2020/12/24 04:45:53;;;;;;;4.35;1.92;;;;;;;;;;5017935;28;20030;-85
2020/12/24 04:48:19;;;;;;;10.98;2.20;;;;;;;;;;5033742;28;20017;-85
2020/12/24 04:50:49;;;;;;;6.97;2.33;;;8.80;86.90;;;;;;5033933;28;20376;-86
2020/12/24 04:53:15;;;;;;;8.10;2.20;;;;;;;;;;5017618;28;20057;-85
2020/12/24 04:55:41;;;;;;;6.38;2.38;;;8.70;71.80;;;;;;5033240;28;20053;-86
2020/12/24 04:58:07;;;;;;;8.50;2.25;;;;;;;;;;5016966;28;20032;-86
2020/12/24 05:00:33;;;;;;;5.82;1.98;;;;;;;;;;5033794;28;20033;-87
2020/12/24 05:03:09;;;;;;;4.78;1.95;;;8.80;72.20;;;;;;5033350;28;20025;-89
2020/12/24 05:05:36;;;;;;;4.70;1.90;;;;;;;;;;5016928;28;20026;-86
2020/12/24 05:08:04;;;;;;;7.45;2.72;;;8.80;72.90;;;;;;5033575;28;20444;-86
2020/12/24 05:10:30;;;;;;;4.13;1.77;;;8.70;74.20;;;;;;5017283;28;20018;-85
2020/12/24 05:12:56;;;;;;;8.65;2.50;;;;;;;;;;5016545;28;20033;-85
2020/12/24 05:15:29;;;;;;;8.80;2.90;;;8.70;74.90;;;;;;5032986;28;20072;-86
2020/12/24 05:18:15;;;;;;;2.83;1.58;;;8.80;89.40;;;;;;5016813;28;20456;-85
2020/12/24 05:20:41;;;;;;;7.10;2.25;;;;;;;;;;5032736;28;20484;-85
2020/12/24 05:23:14;;;;;;;8.90;2.72;;;8.40;94.80;;;;;;5033077;28;20052;-85
2020/12/24 05:25:40;;;;;;;10.00;2.75;;;;;;;;;;5016645;28;20423;-85
2020/12/24 05:28:06;;;;;;;4.03;2.08;;;8.50;67.50;;;;;;5032726;28;20028;-86
2020/12/24 05:30:32;;;;;;;3.35;1.90;;;;;;;;;;5016509;28;20022;-86
2020/12/24 05:32:58;;;;;;;5.65;2.05;;;;;;;;;;5033121;28;20502;-86
2020/12/24 05:35:25;;;;;;;6.47;2.10;;;8.50;82.70;;;;;;5032943;28;20468;-85
2020/12/24 05:37:51;;;;;;;5.55;2.20;;;8.60;72.60;;;;;;5016351;28;20032;-85
2020/12/24 05:40:38;;;;;;;5.97;2.05;;;9.00;89.40;;;;;;5016180;28;20038;-85
2020/12/24 05:43:04;;;;;;;6.55;2.60;;;;;;;;;;5033128;28;20379;-86
2020/12/24 05:45:31;;;;;;;6.10;2.20;;;8.60;87.60;;;;;;5032638;28;20061;-85
2020/12/24 05:48:23;;;;;;;7.90;2.35;;;9.10;71.60;;;;;;5015581;28;20104;-85
2020/12/24 05:50:48;;;;;;;5.47;2.05;;;8.80;91.50;;;;;;5030037;28;20095;-85
2020/12/24 05:53:15;;;;;;;9.77;2.97;;;8.60;70.10;;;;;;5016923;28;20038;-85
2020/12/24 05:55:41;;;;;;;5.55;2.20;;;8.60;72.10;;;;;;5015682;28;20519;-85
2020/12/24 05:58:07;;;;;;;6.35;2.55;;;8.40;73.00;;;;;;5016508;28;20033;-85
2020/12/24 06:00:40;;;;;;;8.23;2.83;;;9.00;96.20;;;;;;5016504;28;20079;-85
2020/12/24 06:03:18;;;;;;;5.43;2.20;;;8.70;83.90;;;;;;5015069;28;20076;-85
2020/12/24 06:05:53;;;;;;;6.70;2.33;;;8.70;90.30;;;;;;5015342;28;20034;-85
2020/12/24 06:08:22;;;;;;;6.40;2.00;;;8.50;72.30;;;;;;5032388;28;20037;-84
2020/12/24 06:10:48;;;;;;;7.70;2.30;;;;;;;;;;5016925;28;20032;-85
2020/12/24 06:13:15;;;;;;;4.75;1.85;;;8.70;96.60;;;;;;5033906;28;20109;-85
2020/12/24 06:15:43;;;;;;;3.33;2.28;;;8.60;72.10;;;;;;5016220;28;20084;-86
2020/12/24 06:18:11;;;;;;;3.05;2.10;;;8.70;70.40;;;;;;5015900;28;20030;-87
2020/12/24 06:20:38;;;;;;;7.78;2.00;;;8.40;95.10;;;;;;5016497;28;20391;-85
2020/12/24 06:23:04;;;;;;;4.07;2.20;;;;;;;;;;5016818;28;20478;-85
2020/12/24 06:25:30;;;;;;;4.95;1.90;;;;;;;;;;5032381;28;20113;-85
2020/12/24 06:27:56;;;;;;;2.60;1.80;;;;;;;;;;5032504;28;20058;-87
2020/12/24 06:30:22;;;;;;;7.10;2.13;;;;;;;;;;5032351;28;20116;-85
2020/12/24 06:32:49;;;;;;;4.43;2.78;;;8.60;69.60;;;;;;5031961;28;20021;-85
2020/12/24 06:35:40;;;;;;;4.70;2.00;;;8.50;71.60;;;;;;5015911;28;20074;-86
2020/12/24 06:38:07;;;;;;;6.32;2.10;;;8.70;83.60;;;;;;5032236;28;20053;-87
2020/12/24 06:40:36;;;;;;;9.48;2.15;;;8.60;69.20;;;;;;5016485;28;20029;-87
2020/12/24 06:43:02;;;;;;;7.63;2.75;;;8.80;94.50;;;;;;5016709;28;20523;-84
2020/12/24 06:45:27;;;;;;;6.50;2.20;;;8.50;87.30;;;;;;5015494;28;20112;-86
2020/12/24 06:48:19;;;;;;;5.88;2.17;;;8.70;88.40;;;;;;5034306;28;20025;-88
2020/12/24 06:50:52;;;;;;;3.72;2.10;;;8.20;95.00;;;;;;5032006;28;20026;-84
2020/12/24 06:53:24;;;;;;;9.30;2.00;;;8.40;68.30;;;;;;5015949;28;20391;-85
2020/12/24 06:56:27;;;;;;;3.65;2.10;;;8.30;83.70;;;;;;5032729;28;20498;-83
2020/12/24 06:59:01;;;;;;;4.93;2.20;;;8.50;68.80;;;;;;5000775;28;20060;-84
2020/12/24 07:01:31;;;;;;;7.32;2.22;;;8.30;84.00;;;;;;5015911;28;20022;-85
2020/12/24 07:04:01;;;;;;;3.83;1.90;;;8.60;71.50;;;;;;5014931;28;20456;-84
2020/12/24 07:06:43;;;;;;;3.63;1.70;;;;;;;;;;5015119;28;20028;-86
2020/12/24 07:09:08;;;;;;;3.47;1.92;;;8.40;96.00;;;;;;5031334;28;20033;-83
2020/12/24 07:11:45;;;;;;;6.03;2.05;;;8.50;72.60;;;;;;5031250;28;20055;-82
2020/12/24 07:14:29;;;;;;;4.97;2.00;;;8.50;72.80;;;;;;5014347;28;20045;-83
2020/12/24 07:17:11;;;;;;;5.72;2.10;;;8.80;90.10;;;;;;5031081;28;20049;-84
2020/12/24 07:19:38;;;;;;;7.63;2.50;;;8.90;74.40;;;;;;5031376;28;20093;-83
2020/12/24 07:22:05;;;;;;;4.47;1.90;;;;;;;;;;5031607;28;20080;-83
2020/12/24 07:24:31;;;;;;;4.07;1.98;;;;;;;;;;5032154;28;20033;-87
2020/12/24 07:27:01;;;;;;;3.95;1.92;;;9.10;96.00;;;;;;5031774;28;20049;-82
2020/12/24 07:29:28;;;;;;;5.68;2.03;;;9.10;70.60;;;;;;5032536;28;20061;-86
2020/12/24 07:31:55;;;;;;;5.63;2.03;;;9.10;66.60;;;;;;5014900;28;20028;-86
2020/12/24 07:34:24;;;;;;;4.57;1.90;;;9.30;78.00;;;;;;5014901;28;20472;-85
2020/12/24 07:36:49;;;;;;;5.68;2.05;;;8.80;93.90;;;;;;5031173;28;20068;-83
2020/12/24 07:39:15;;;;;;;3.88;1.83;;;8.90;67.90;;;;;;5014597;28;20053;-87
2020/12/24 07:41:41;;;;;;;6.22;2.05;;;;;;;;;;5014779;28;20029;-85
2020/12/24 07:44:14;;;;;;;3.67;1.80;;;8.90;81.20;;;;;;5031065;28;20472;-84
2020/12/24 07:46:39;;;;;;;8.10;1.90;;;8.80;88.70;;;;;;5014764;28;20034;-85
2020/12/24 07:49:05;;;;;;;5.97;2.05;;;8.70;71.80;;;;;;5014800;28;20052;-85
2020/12/24 07:51:32;;;;;;;5.72;1.98;;;;;;;;;;5015107;28;20120;-87
2020/12/24 07:54:30;;;;;;;5.60;2.00;;;8.60;96.20;;;;;;5031045;28;20033;-85
2020/12/24 07:57:03;;;;;;;5.57;2.15;;;8.10;91.40;;;;;;5031164;28;20073;-84
2020/12/24 07:59:31;;;;;;;8.00;2.53;;;;;;;;;;4995612;28;20137;-88
2020/12/24 08:02:04;;;;;;;4.65;1.73;;;7.80;98.10;;;;;;5035213;28;20017;-88
2020/12/24 08:04:30;;;;;;;3.67;2.00;;;;;;;;;;5029876;28;20041;-86
2020/12/24 08:06:56;;;;;;;5.68;1.73;;;;;;;;;;5027917;28;20113;-86
2020/12/24 08:09:22;;;;;;;7.85;2.30;;;;;;;;;;5046386;28;20365;-86
2020/12/24 08:11:55;;;;;;;3.78;1.88;;;8.00;91.70;;;;;;5033896;28;20115;-88
2020/12/24 08:14:25;;;;;;;6.05;1.88;;;;;;;;;;5034861;28;20530;-88
2020/12/24 08:16:51;;;;;;;4.05;1.70;;;7.80;76.00;;;;;;5033865;28;20454;-88
2020/12/24 08:19:34;;;;;;;3.75;1.98;;;7.70;96.00;;;;;;5034732;28;20376;-85
2020/12/24 08:22:00;;;;;;;6.18;1.92;;;;;;;;;;5034042;28;20026;-86
2020/12/24 08:24:26;;;;;;;5.38;2.15;;;;;;;;;;5051042;28;20063;-87
2020/12/24 08:26:52;;;;;;;7.32;2.38;;;;;;;;;;5030400;28;20030;-82
2020/12/24 08:29:18;;;;;;;3.05;1.92;;;;;;;;;;5049966;28;20029;-83
2020/12/24 08:31:45;;;;;;;6.00;1.95;;;;;;;;;;5034363;28;20022;-86
2020/12/24 08:34:11;;;;;;;2.20;1.60;;;;;;;;;;5034453;28;20021;-87
2020/12/24 08:36:45;;;;;;;3.45;1.70;;;7.80;91.20;;;;;;5024573;28;20121;-87
2020/12/24 08:39:11;;;;;;;3.28;1.85;;;;;;;;;;5000947;28;20030;-82
2020/12/24 08:41:40;;;;;;;4.30;1.77;;;7.50;81.20;;;;;;5014365;28;20026;-82
2020/12/24 08:44:06;;;;;;;2.70;1.77;;;;;;;;;;4998270;28;20045;-83
2020/12/24 08:49:46;;;;;;;4.72;2.03;;;;;;;;;;5019745;28;20057;-81
2020/12/24 08:52:20;;;;;;;3.30;1.90;;;7.40;82.00;;;;;;5034917;28;20022;-79
2020/12/24 08:55:01;;;;;;;7.00;2.00;;;7.20;99.90;;;;;;5033825;28;20033;-81
2020/12/24 08:57:26;;;;;;;5.72;2.20;;;7.40;99.90;;;;;;5033286;28;20038;-79
2020/12/24 08:59:55;;;;;;;3.40;1.90;;;7.30;84.30;;;;;;5033718;28;20373;-82
2020/12/24 09:02:28;;;;;;;4.22;1.98;;;7.50;85.20;;;;;;5033076;28;20056;-82
2020/12/24 09:04:59;;;;;;;5.68;1.92;;;7.30;94.40;;;;;;5025167;28;20037;-79
2020/12/24 09:07:32;;;;;;;3.67;1.93;;;7.60;99.90;;;;;;5032930;28;20029;-83
2020/12/24 09:10:05;;;;;;;4.53;1.77;;;7.60;99.90;;;;;;5030410;28;20385;-83
2020/12/24 09:12:31;;;;;;;4.65;2.17;;;;;;;;;;5047041;28;20104;-86
2020/12/24 09:15:01;;;;;;;5.50;2.05;;;7.40;99.90;;;;;;5032122;28;20101;-83
2020/12/24 09:17:27;;;;;;;3.05;1.50;;;;;;;;;;5026482;28;20028;-81
2020/12/24 09:20:04;;;;;;;3.78;2.00;;;7.80;94.00;;;;;;5029484;28;20527;-81
2020/12/24 09:22:30;;;;;;;3.47;1.67;;;;;;;;;;5043393;28;20108;-83
2020/12/24 09:24:55;;;;;;;3.15;1.77;;;;;;;;;;5032837;28;20116;-82
2020/12/24 09:27:21;;;;;;;3.22;1.40;;;7.70;98.70;;;;;;5032573;28;20074;-80
2020/12/24 09:29:47;;;;;;;3.50;2.03;;;7.80;92.90;;;;;;5032839;28;20029;-82
2020/12/24 09:32:13;;;;;;;4.20;2.13;;;8.00;80.30;;;;;;5032925;28;20029;-81
2020/12/24 09:34:39;;;;;;;3.92;2.13;;;;;;;;;;5032559;28;20060;-86
2020/12/24 09:37:05;;;;;;;2.33;1.58;;;8.00;93.50;;;;;;5032879;28;20049;-83
2020/12/24 09:39:31;;;;;;;6.82;1.90;;;;;;;;;;5032452;28;20025;-84
2020/12/24 09:41:57;;;;;;;2.63;2.13;;;;;;;;;;5032630;28;20567;-82
2020/12/24 09:44:22;;;;;;;3.53;1.67;;;8.20;99.40;;;;;;5032245;28;20478;-86
2020/12/24 09:46:48;;;;;;;4.85;1.80;;;;;;;;;;5032467;28;20055;-83
2020/12/24 09:49:15;;;;;;;3.90;2.10;;;;;;;;;;5029213;28;20025;-83
2020/12/24 09:51:40;;;;;;;4.40;1.90;;;8.20;98.60;;;;;;5029146;28;20104;-85
2020/12/24 09:54:06;;;;;;;2.88;1.88;;;8.10;92.90;;;;;;5030016;28;20096;-85
2020/12/24 09:56:32;;;;;;;4.50;2.08;;;;;;;;;;5031999;28;20050;-85
2020/12/24 09:58:59;;;;;;;3.33;1.58;;;;;;;;;;5029555;28;20373;-86
2020/12/24 10:01:25;;;;;;;3.30;1.58;;;;;;;;;;5046365;28;20037;-86
2020/12/24 10:03:51;;;;;;;2.88;1.77;;;;;;;;;;5028356;28;20041;-86
2020/12/24 10:06:17;;;;;;;7.85;3.72;;;;;;;;;;5031990;28;20021;-82
2020/12/24 10:08:42;;;;;;;10.85;7.30;;;8.00;99.90;;;;;;5015498;28;20072;-86
2020/12/24 10:11:12;;;;;;;5.55;1.85;;;8.30;80.30;;;;;;4980890;28;20476;-84
2020/12/24 10:13:38;;;;;;;4.50;1.92;;;;;;;;;;5004917;28;20113;-84
2020/12/24 10:16:04;;;;;;;4.15;1.90;;;8.20;91.20;;;;;;5012437;28;20033;-82
2020/12/24 10:18:29;;;;;;;2.58;1.63;;;8.20;77.60;;;;;;4979971;28;20029;-85
2020/12/24 10:20:55;;;;;;;2.30;1.63;;;7.90;98.40;;;;;;4979544;28;20029;-84
2020/12/24 10:23:21;;;;;;;5.25;2.47;;;;;;;;;;5015935;28;20079;-83
2020/12/24 10:25:50;;;;;;;4.10;1.90;;;8.00;92.20;;;;;;5045878;28;20038;-84
2020/12/24 10:28:15;;;;;;;3.08;2.00;;;8.20;78.40;;;;;;5023501;28;20432;-83
2020/12/24 10:30:43;;;;;;;4.18;1.63;;;7.80;90.10;;;;;;5031095;28;20060;-80
2020/12/24 10:33:08;;;;;;;4.68;1.90;;;8.00;86.10;;;;;;5030792;28;20033;-81
2020/12/24 10:37:30;;;;;;;47.53;27.90;;;8.80;95.90;;;;;;5069672;28;20354;-62
2020/12/24 10:39:56;;;;;;;46.05;26.73;;;10.30;99.90;;;;;;5068002;28;20032;-63
2020/12/24 10:42:22;;;;;;;36.95;23.95;;;12.00;99.90;;;;;;5049511;28;20025;-63
2020/12/24 10:44:47;;;;;;;54.03;30.50;;;13.50;99.90;;;;;;5048454;28;20044;-62
2020/12/24 10:47:13;;;;;;;70.18;29.80;;;15.00;91.20;;;;;;5049249;28;20025;-62
2020/12/24 10:49:41;;;;;;;60.05;32.17;;;16.40;83.90;;;;;;5060957;28;20029;-63
2020/12/24 10:52:10;;;;;;;54.30;31.30;;;17.60;78.90;;;;;;5055979;28;20021;-63
2020/12/24 10:54:35;;;;;;;73.28;27.95;;;18.60;74.80;;;;;;5067996;28;20017;-65
2020/12/24 10:57:01;;;;;;;62.28;27.50;;;19.40;70.10;;;;;;5068719;28;20044;-64
2020/12/24 10:59:26;;;;;;;55.05;27.08;;;20.20;67.50;;;;;;5068797;28;20456;-63
2020/12/24 11:01:52;;;;;;;58.28;28.73;;;20.70;65.50;;;;;;5069263;28;20036;-64
2020/12/24 11:04:17;;;;;;;43.75;29.05;;;21.20;64.20;;;;;;5069443;28;20033;-64
2020/12/24 11:06:44;;;;;;;44.10;27.58;;;21.50;63.00;;;;;;5069300;28;20158;-62
2020/12/24 11:09:10;;;;;;;48.20;27.48;;;21.90;62.00;;;;;;5069554;28;20055;-64
2020/12/24 11:11:35;;;;;;;48.92;26.58;;;22.10;61.10;;;;;;5067907;28;20115;-64
2020/12/24 11:14:01;;;;;;;39.83;26.15;;;22.30;60.30;;;;;;5069041;28;20463;-64
2020/12/24 11:16:27;;;;;;;38.88;25.30;;;22.50;59.70;;;;;;5069168;28;20131;-64
2020/12/24 11:18:52;;;;;;;36.75;25.42;;;22.60;59.10;;;;;;5069017;28;20112;-63
2020/12/24 11:21:18;;;;;;;39.97;24.65;;;22.70;58.60;;;;;;5069283;28;20474;-62
2020/12/24 11:23:44;;;;;;;41.35;24.75;;;22.80;58.20;;;;;;5068934;28;20079;-61
2020/12/24 11:26:10;;;;;;;37.63;24.90;;;22.90;57.90;;;;;;5069095;28;20467;-61
2020/12/24 11:28:36;;;;;;;42.72;23.35;;;23.00;57.60;;;;;;5069028;28;20375;-63
2020/12/24 11:31:01;;;;;;;40.42;21.40;;;23.00;57.40;;;;;;5069023;28;20112;-63
2020/12/24 11:33:27;;;;;;;35.40;22.40;;;23.10;57.20;;;;;;5067520;28;20083;-62
2020/12/24 11:35:52;;;;;;;28.02;20.48;;;23.20;57.00;;;;;;5068451;28;20056;-61
2020/12/24 11:38:18;;;;;;;33.08;21.05;;;23.10;56.90;;;;;;5067262;28;20025;-62
2020/12/24 11:40:43;;;;;;;34.65;21.70;;;23.20;56.70;;;;;;5068803;28;20025;-62
2020/12/24 11:43:09;;;;;;;32.53;21.13;;;23.20;56.50;;;;;;5067532;28;20078;-61
2020/12/24 11:45:35;;;;;;;28.90;19.95;;;23.20;56.40;;;;;;5068725;28;20036;-63
2020/12/24 11:48:00;;;;;;;32.40;20.38;;;23.20;56.30;;;;;;5060148;28;20029;-62
2020/12/24 11:50:26;;;;;;;29.80;19.13;;;23.20;56.20;;;;;;5055187;28;20029;-61
2020/12/24 11:52:51;;;;;;;27.98;18.38;;;23.20;56.20;;;;;;5055432;28;20112;-62
2020/12/24 11:55:17;;;;;;;39.45;20.35;;;23.30;56.20;;;;;;5054889;28;20029;-62
2020/12/24 11:57:42;;;;;;;27.48;19.20;;;23.30;56.10;;;;;;5055063;28;20033;-62
2020/12/24 12:00:09;;;;;;;25.90;16.55;;;23.30;56.00;;;;;;5055271;28;20440;-60
2020/12/24 12:02:35;;;;;;;29.98;17.30;;;23.30;55.70;;;;;;5055177;28;20036;-61
2020/12/24 12:05:00;;;;;;;29.23;16.70;;;23.30;55.80;;;;;;5053731;28;20399;-60
2020/12/24 12:07:26;;;;;;;29.55;17.70;;;23.40;56.00;;;;;;5055032;28;20078;-61
2020/12/24 12:09:51;;;;;;;33.58;18.88;;;23.40;56.30;;;;;;5054771;28;20036;-60
2020/12/24 12:12:17;;;;;;;28.73;18.50;;;23.40;56.70;;;;;;5055006;28;20032;-59
2020/12/24 12:14:43;;;;;;;33.58;18.10;;;23.40;57.20;;;;;;5055005;28;20029;-60
2020/12/24 12:17:12;;;;;;;36.38;20.05;;;23.50;58.20;;;;;;5054746;28;20039;-61
2020/12/24 12:19:43;;;;;;;29.17;17.63;;;23.50;58.00;;;;;;5054929;28;20017;-62
2020/12/24 12:22:12;;;;;;;;;;;23.50;58.40;;;;;;5053979;28;20032;-61
2020/12/24 12:24:39;;;;;;;33.20;19.95;;;23.50;58.60;;;;;;5053115;28;19959;-60
2020/12/24 12:27:05;;;;;;;31.50;18.67;;;23.50;58.80;;;;;;5053495;28;20043;-62
2020/12/24 12:29:31;;;;;;;33.40;18.83;;;23.50;58.70;;;;;;5053028;28;20021;-62
2020/12/24 12:31:56;;;;;;;37.30;18.40;;;23.50;58.70;;;;;;5054342;28;20076;-62
2020/12/24 12:34:22;;;;;;;39.85;17.35;;;23.50;58.70;;;;;;5054452;28;20063;-61
2020/12/24 12:36:48;;;;;;;31.75;16.90;;;23.50;58.50;;;;;;5054293;28;20057;-63
2020/12/24 12:39:13;;;;;;;39.47;15.60;;;23.50;58.50;;;;;;5054284;28;20098;-62
2020/12/24 12:41:39;;;;;;;27.35;14.50;;;23.50;57.70;;;;;;5054474;28;20410;-61
2020/12/24 12:44:05;;;;;;;38.58;16.90;;;23.50;57.60;;;;;;5054320;28;20051;-62
2020/12/24 12:46:30;;;;;;;37.45;16.23;;;23.50;58.00;;;;;;5041724;28;20113;-62
2020/12/24 12:48:56;;;;;;;43.65;16.55;;;23.50;58.20;;;;;;5033790;28;20021;-61
2020/12/24 12:51:22;;;;;;;36.45;16.10;;;23.50;58.30;;;;;;5031295;28;20025;-61
2020/12/24 12:53:47;;;;;;;33.03;15.48;;;23.50;58.30;;;;;;5032251;28;20365;-61
2020/12/24 12:56:13;;;;;;;33.08;14.55;;;23.50;58.30;;;;;;5034073;28;20052;-62
2020/12/24 12:58:40;;;;;;;45.22;16.70;;;23.50;58.00;;;;;;5033694;28;20056;-63
2020/12/24 13:01:06;;;;;;;37.50;14.90;;;23.50;58.20;;;;;;5032340;28;20030;-62
2020/12/24 13:03:32;;;;;;;38.97;15.85;;;23.50;58.20;;;;;;5033841;28;20028;-61
2020/12/24 13:05:57;;;;;;;33.15;14.60;;;23.50;58.40;;;;;;5032648;28;20108;-63
2020/12/24 13:08:23;;;;;;;42.33;15.50;;;23.50;58.40;;;;;;5033734;28;20132;-63
2020/12/24 13:10:49;;;;;;;40.95;15.50;;;23.50;58.50;;;;;;5034005;28;20032;-64
2020/12/24 13:13:14;;;;;;;34.63;15.15;;;23.50;58.60;;;;;;5034821;28;20053;-64
2020/12/24 13:15:40;;;;;;;39.67;14.00;;;23.50;58.70;;;;;;5032543;28;20121;-64
2020/12/24 13:18:05;;;;;;;37.15;14.90;;;23.50;58.70;;;;;;5033426;28;20040;-63
2020/12/24 13:20:31;;;;;;;36.33;12.32;;;23.50;58.90;;;;;;5032082;28;20033;-64
2020/12/24 13:22:57;;;;;;;42.40;12.52;;;23.50;57.90;;;;;;5033111;28;20457;-60
2020/12/24 13:25:22;;;;;;;34.85;13.15;;;23.50;57.90;;;;;;5033103;28;20109;-65
2020/12/24 13:27:48;;;;;;;33.55;12.50;;;23.50;58.10;;;;;;5030843;28;20490;-61
2020/12/24 13:30:13;;;;;;;34.55;12.55;;;23.50;58.80;;;;;;5031651;28;20368;-63
2020/12/24 13:32:39;;;;;;;33.53;13.40;;;23.50;59.10;;;;;;5032296;28;20032;-62